Forside
METAR-TAF:

METAR-TAF

Lufthavne :

Bahrain, Bahrain

Breddekreds: 26-16N, længdekreds: 050-39E, højde: 2 m

Aktuelle vejr

Denne rapport blev lavet for 38 minutter siden, kl. 17:30 UTC
Vind 8 kt fra nordvest
Temperatur 34°C
Fugtighed 56%
Tryk 997 hPa
Sigt 10 km eller mere
ingen skyer under 1500m og ingen cumulonimbus

METAR: OBBI 141730Z 31008KT CAVOK 34/24 Q0997 NOSIG

Tid: 21:08 (18:08 UTC)

Vejrudsigter

Denne rapport blev lavet for 1 time og 5 minutter siden, kl. 17:03 UTC
Foreløbig gælder fra 14 på 18 UTC til 16 på 00 UTC
Vind 10 kt fra nordnordvest
Sigt 10 km eller mere
ingen skyer under 1500m og ingen cumulonimbus
ændring
fra 15 på 01 UTC til 15 på 02 UTC
Vind 15 kt fra nordnordvest med vindstød på up til 25 kt
ændring
fra 15 på 14 UTC til 15 på 16 UTC
Vind 8 kt fra nordvest

TAF: OBBI 141703Z 1418/1600 33010KT CAVOK BECMG 1501/1502 33015G25KT BECMG 1514/1516 32008KT

Vejrobservationer og prognoser fra mere end 4000 lufthavne (METAR og TAF).

De gule og røde prikker repræsenterer de meteorologiske stationer.

Flyt musen over at se navnet på stationen.

Så klik over at se vejr observationer og prognoser.

At skifte det kort: Klik på de grønne knapper med et sort kors for at zoome ind; på den grønne knap med en bindestreg for at zoome ud; eller på de grønne pile for tilstødende kort.


METAR-TAF: